Time;durP1;ratioP1;P1;durP2;ratioP2;P2;SDS_P1;SDS_P2;PMS_P1;PMS_P2;Temp;Humidity;BMP_temperature;BMP_pressure;BME280_temperature;BME280_humidity;BME280_pressure;Samples;Min_cycle;Max_cycle;Signal;HPM_P1;HPM_P2
2021/07/08 00:00:35;;;;;;;;;8.00;8.00;;;;;-149.00;100.00;66333.84;5103391;27;45401;-77
2021/07/08 00:03:02;;;;;;;;;10.00;9.00;;;;;-149.00;100.00;66333.84;5102006;27;47263;-76
2021/07/08 00:05:28;;;;;;;;;9.00;8.67;;;;;-149.00;100.00;66333.84;5103019;27;45279;-77
2021/07/08 00:07:56;;;;;;;;;7.67;7.67;;;;;-149.00;100.00;66333.84;5103203;27;45232;-76
2021/07/08 00:10:35;;;;;;;;;8.33;8.33;;;;;-149.00;100.00;66333.84;5102873;27;45360;-77
2021/07/08 00:13:01;;;;;;;;;8.67;8.33;;;;;-149.00;100.00;66333.84;5102992;27;45249;-77
2021/07/08 00:15:28;;;;;;;;;9.00;9.00;;;;;-149.00;100.00;66333.84;5103398;27;45311;-76
2021/07/08 00:17:54;;;;;;;;;9.67;9.00;;;;;-149.00;100.00;66333.84;5102819;27;45359;-76
2021/07/08 00:20:22;;;;;;;;;8.00;8.00;;;;;-149.00;100.00;66333.84;5102272;27;45477;-76
2021/07/08 00:22:48;;;;;;;;;8.33;7.00;;;;;-149.00;100.00;66333.84;5102501;27;45336;-77
2021/07/08 00:25:17;;;;;;;;;9.33;9.33;;;;;-149.00;100.00;66333.84;5102783;27;45350;-76
2021/07/08 00:27:42;;;;;;;;;8.33;7.33;;;;;-149.00;100.00;66333.84;5102919;27;45203;-76
2021/07/08 00:30:09;;;;;;;;;9.00;9.00;;;;;-149.00;100.00;66333.84;5102558;27;45460;-77
2021/07/08 00:32:35;;;;;;;;;8.00;8.00;;;;;-149.00;100.00;66333.84;5083530;27;48603;-77
2021/07/08 00:35:01;;;;;;;;;9.00;9.00;;;;;-149.00;100.00;66333.84;5102506;27;45338;-77
2021/07/08 00:37:26;;;;;;;;;6.67;6.67;;;;;-149.00;100.00;66333.84;5102613;27;45327;-77
2021/07/08 00:39:52;;;;;;;;;8.00;8.00;;;;;-149.00;100.00;66333.84;5102381;27;45316;-77
2021/07/08 00:42:17;;;;;;;;;8.67;8.67;;;;;-149.00;100.00;66333.84;5102286;27;46072;-77
2021/07/08 00:44:43;;;;;;;;;9.33;8.33;;;;;-149.00;100.00;66333.84;5102640;27;45314;-77
2021/07/08 00:47:09;;;;;;;;;9.00;9.00;;;;;-149.00;100.00;66333.84;5102571;27;45260;-76
2021/07/08 00:49:34;;;;;;;;;10.33;10.33;;;;;-149.00;100.00;66333.84;5102461;27;45569;-77
2021/07/08 00:51:59;;;;;;;;;9.00;9.00;;;;;-149.00;100.00;66333.84;5102113;27;46113;-77
2021/07/08 00:54:25;;;;;;;;;9.00;9.00;;;;;-149.00;100.00;66333.84;5102129;27;45158;-77
2021/07/08 00:56:50;;;;;;;;;6.67;6.67;;;;;-149.00;100.00;66333.84;5102217;27;45236;-77
2021/07/08 00:59:16;;;;;;;;;10.33;9.00;;;;;-149.00;100.00;66333.84;5101975;27;45208;-77
2021/07/08 01:01:43;;;;;;;;;10.00;8.33;;;;;-149.00;100.00;66333.84;5102180;27;46006;-76
2021/07/08 01:04:10;;;;;;;;;7.00;7.00;;;;;-149.00;100.00;66333.84;5102220;27;45279;-77
2021/07/08 01:06:40;;;;;;;;;8.00;8.00;;;;;-149.00;100.00;66333.84;5101973;27;45245;-77
2021/07/08 01:09:06;;;;;;;;;8.33;8.00;;;;;-149.00;100.00;66333.84;5101939;27;46011;-77
2021/07/08 01:11:31;;;;;;;;;7.67;7.00;;;;;-149.00;100.00;66333.84;5101572;27;46266;-77
2021/07/08 01:13:57;;;;;;;;;8.67;7.67;;;;;-149.00;100.00;66333.84;5102075;27;45280;-76
2021/07/08 01:16:24;;;;;;;;;9.00;9.00;;;;;-149.00;100.00;66333.84;5101917;27;45430;-77
2021/07/08 01:18:49;;;;;;;;;10.00;9.67;;;;;-149.00;100.00;66333.84;5101541;27;46025;-78
2021/07/08 01:21:28;;;;;;;;;7.33;7.33;;;;;-149.00;100.00;66333.84;5101409;27;45295;-76
2021/07/08 01:23:59;;;;;;;;;9.00;9.00;;;;;-149.00;100.00;66333.84;5101726;27;45366;-77
2021/07/08 01:26:25;;;;;;;;;8.00;8.00;;;;;-149.00;100.00;66333.84;5101539;27;45416;-77
2021/07/08 01:28:52;;;;;;;;;9.00;8.67;;;;;-149.00;100.00;66333.84;5101419;27;45470;-77
2021/07/08 01:31:18;;;;;;;;;8.00;8.00;;;;;-149.00;100.00;66333.84;5101007;27;45371;-77
2021/07/08 01:33:45;;;;;;;;;8.67;7.33;;;;;-149.00;100.00;66333.84;5100982;27;45306;-77
2021/07/08 01:36:10;;;;;;;;;8.00;8.00;;;;;-149.00;100.00;66333.84;5101492;27;45422;-77
2021/07/08 01:38:35;;;;;;;;;10.00;9.33;;;;;-149.00;100.00;66333.84;5101485;27;45420;-76
2021/07/08 01:41:02;;;;;;;;;7.67;7.67;;;;;-149.00;100.00;66333.84;5101192;27;45304;-77
2021/07/08 01:43:27;;;;;;;;;6.00;6.00;;;;;-149.00;100.00;66333.84;5101394;27;45381;-77
2021/07/08 01:45:53;;;;;;;;;7.00;7.00;;;;;-149.00;100.00;66333.84;5101387;27;45252;-77
2021/07/08 01:48:18;;;;;;;;;8.00;7.67;;;;;-149.00;100.00;66333.84;5082779;27;47339;-77
2021/07/08 01:50:44;;;;;;;;;7.33;7.00;;;;;-149.00;100.00;66333.84;5101087;27;46028;-77
2021/07/08 01:53:09;;;;;;;;;6.67;6.33;;;;;-149.00;100.00;66333.84;5101111;27;45360;-77
2021/07/08 01:55:35;;;;;;;;;7.67;7.67;;;;;-149.00;100.00;66333.84;5101289;27;45327;-77
2021/07/08 01:58:02;;;;;;;;;7.00;7.00;;;;;-149.00;100.00;66333.84;5100618;27;45291;-77
2021/07/08 02:00:27;;;;;;;;;8.67;8.67;;;;;-149.00;100.00;66333.84;5101436;27;45351;-76
2021/07/08 02:02:55;;;;;;;;;7.33;6.67;;;;;-149.00;100.00;66333.84;5082671;27;45322;-77
2021/07/08 02:05:21;;;;;;;;;6.67;6.67;;;;;-149.00;100.00;66333.84;5101330;27;45240;-77
2021/07/08 02:07:47;;;;;;;;;7.67;7.67;;;;;-149.00;100.00;66333.84;5100946;27;45219;-77
2021/07/08 02:10:16;;;;;;;;;8.67;7.33;;;;;-149.00;100.00;66333.84;5080757;27;48187;-77
2021/07/08 02:12:43;;;;;;;;;11.00;9.67;;;;;-149.00;100.00;66333.84;5100812;27;45419;-77
2021/07/08 02:15:10;;;;;;;;;11.67;10.00;;;;;-149.00;100.00;66333.84;5100662;27;45640;-76
2021/07/08 02:17:37;;;;;;;;;9.67;8.67;;;;;-149.00;100.00;66333.84;5099821;27;46244;-77
2021/07/08 02:20:05;;;;;;;;;8.00;8.00;;;;;-149.00;100.00;66333.84;5100453;27;45396;-76
2021/07/08 02:22:32;;;;;;;;;7.67;6.67;;;;;-149.00;100.00;66333.84;5099424;27;45365;-76
2021/07/08 02:24:57;;;;;;;;;7.67;7.67;;;;;-149.00;100.00;66333.84;5100588;27;45348;-76
2021/07/08 02:27:23;;;;;;;;;6.67;6.67;;;;;-149.00;100.00;66333.84;5100585;27;45589;-76
2021/07/08 02:29:48;;;;;;;;;9.00;8.00;;;;;-149.00;100.00;66333.84;5100648;27;45286;-76
2021/07/08 02:32:14;;;;;;;;;10.00;9.00;;;;;-149.00;100.00;66333.84;5100640;27;45326;-76
2021/07/08 02:34:39;;;;;;;;;7.33;7.33;;;;;-149.00;100.00;66333.84;5082526;27;45308;-76
2021/07/08 02:37:05;;;;;;;;;10.00;10.00;;;;;-149.00;100.00;66333.84;5100352;27;45428;-76
2021/07/08 02:39:31;;;;;;;;;9.67;9.33;;;;;-149.00;100.00;66333.84;5100423;27;46288;-77
2021/07/08 02:41:57;;;;;;;;;10.67;10.67;;;;;-149.00;100.00;66333.84;5099513;27;45308;-77
2021/07/08 02:44:22;;;;;;;;;10.00;8.67;;;;;-149.00;100.00;66333.84;5100608;27;45250;-77
2021/07/08 02:46:47;;;;;;;;;10.67;7.33;;;;;-149.00;100.00;66333.84;5081629;27;47163;-76
2021/07/08 02:49:13;;;;;;;;;12.33;10.00;;;;;-149.00;100.00;66333.84;5081990;27;47157;-76
2021/07/08 02:51:38;;;;;;;;;6.67;6.67;;;;;-149.00;100.00;66333.84;5100250;27;45236;-76
2021/07/08 02:54:03;;;;;;;;;8.00;7.33;;;;;-149.00;100.00;66333.84;5100527;27;45257;-76
2021/07/08 02:56:29;;;;;;;;;10.67;10.67;;;;;-149.00;100.00;66333.84;5100218;27;45213;-76
2021/07/08 02:58:54;;;;;;;;;9.00;9.00;;;;;-149.00;100.00;66333.84;5099836;27;46196;-76
2021/07/08 03:01:19;;;;;;;;;7.00;7.00;;;;;-149.00;100.00;66333.84;5100247;27;45333;-76
2021/07/08 03:03:45;;;;;;;;;8.67;8.67;;;;;-149.00;100.00;66333.84;5100319;27;45318;-77
2021/07/08 03:06:10;;;;;;;;;10.00;9.00;;;;;-149.00;100.00;66333.84;5099911;27;45297;-76
2021/07/08 03:08:35;;;;;;;;;12.00;10.33;;;;;-149.00;100.00;66333.84;5081339;27;47215;-77
2021/07/08 03:11:01;;;;;;;;;12.67;11.33;;;;;-149.00;100.00;66333.84;5099616;27;45270;-77
2021/07/08 03:13:27;;;;;;;;;7.67;7.67;;;;;-149.00;100.00;66333.84;5099606;27;45336;-76
2021/07/08 03:15:52;;;;;;;;;10.33;10.33;;;;;-149.00;100.00;66333.84;5081467;27;45950;-77
2021/07/08 03:18:18;;;;;;;;;7.00;7.00;;;;;-149.00;100.00;66333.84;5099847;27;45935;-77
2021/07/08 03:20:45;;;;;;;;;8.33;7.00;;;;;-149.00;100.00;66333.84;5099705;27;45431;-77
2021/07/08 03:23:11;;;;;;;;;7.33;7.33;;;;;-149.00;100.00;66333.84;5099785;27;45232;-77
2021/07/08 03:25:36;;;;;;;;;10.33;9.00;;;;;-149.00;100.00;66333.84;5081042;27;46352;-76
2021/07/08 03:28:02;;;;;;;;;10.33;8.00;;;;;-149.00;100.00;66333.84;5099766;27;46088;-76
2021/07/08 03:30:30;;;;;;;;;8.67;8.33;;;;;-149.00;100.00;66333.84;5081197;27;46340;-77
2021/07/08 03:32:56;;;;;;;;;12.00;11.00;;;;;-149.00;100.00;66333.84;5099676;27;45382;-77
2021/07/08 03:35:22;;;;;;;;;6.00;6.00;;;;;-149.00;100.00;66333.84;5099493;27;45480;-77
2021/07/08 03:37:47;;;;;;;;;8.00;8.00;;;;;-149.00;100.00;66333.84;5081043;27;48756;-76
2021/07/08 03:40:14;;;;;;;;;8.00;8.00;;;;;-149.00;100.00;66333.84;5099285;27;45351;-77
2021/07/08 03:42:41;;;;;;;;;8.00;7.67;;;;;-149.00;100.00;66333.84;5081577;27;45372;-76
2021/07/08 03:45:08;;;;;;;;;8.00;8.00;;;;;-149.00;100.00;66333.84;5099478;27;45472;-76
2021/07/08 03:47:33;;;;;;;;;7.67;7.00;;;;;-149.00;100.00;66333.84;5099138;27;45949;-77
2021/07/08 03:49:58;;;;;;;;;8.33;8.33;;;;;-149.00;100.00;66333.84;5099378;27;45294;-76
2021/07/08 03:52:24;;;;;;;;;9.67;8.00;;;;;-149.00;100.00;66333.84;5080807;27;45283;-77
2021/07/08 03:54:49;;;;;;;;;7.33;7.33;;;;;-149.00;100.00;66333.84;5101421;27;45461;-77
2021/07/08 03:57:15;;;;;;;;;7.33;6.33;;;;;-149.00;100.00;66333.84;5102703;27;46282;-77
2021/07/08 03:59:40;;;;;;;;;8.00;8.00;;;;;-149.00;100.00;66333.84;5102827;27;45257;-77
2021/07/08 04:02:05;;;;;;;;;7.33;7.33;;;;;-149.00;100.00;66333.84;5102997;27;45320;-77
2021/07/08 04:04:31;;;;;;;;;9.00;9.00;;;;;-149.00;100.00;66333.84;5102616;27;45321;-77
2021/07/08 04:06:57;;;;;;;;;8.00;8.00;;;;;-149.00;100.00;66333.84;5102649;27;45301;-77
2021/07/08 04:09:22;;;;;;;;;6.67;6.00;;;;;-149.00;100.00;66333.84;5084161;27;45321;-77
2021/07/08 04:11:48;;;;;;;;;8.67;8.67;;;;;-149.00;100.00;66333.84;5102580;27;45286;-77
2021/07/08 04:14:14;;;;;;;;;8.00;8.00;;;;;-149.00;100.00;66333.84;5102632;27;45517;-77
2021/07/08 04:16:39;;;;;;;;;7.00;7.00;;;;;-149.00;100.00;66333.84;5102500;27;46325;-77
2021/07/08 04:19:05;;;;;;;;;10.33;8.33;;;;;-149.00;100.00;66333.84;5084439;27;45350;-77
2021/07/08 04:21:30;;;;;;;;;10.67;10.33;;;;;-149.00;100.00;66333.84;5102378;27;45343;-77
2021/07/08 04:23:55;;;;;;;;;9.00;8.00;;;;;-149.00;100.00;66333.84;5102606;27;45208;-77
2021/07/08 04:26:21;;;;;;;;;6.33;6.33;;;;;-149.00;100.00;66333.84;5102164;27;45423;-77
2021/07/08 04:28:46;;;;;;;;;9.33;9.00;;;;;-149.00;100.00;66333.84;5102387;27;45195;-77
2021/07/08 04:31:16;;;;;;;;;10.33;8.00;;;;;-149.00;100.00;66333.84;5102308;27;45138;-77
2021/07/08 04:33:41;;;;;;;;;8.67;8.00;;;;;-149.00;100.00;66333.84;5101945;27;45328;-76
2021/07/08 04:36:07;;;;;;;;;11.67;10.33;;;;;-149.00;100.00;66333.84;5082552;27;47586;-78
2021/07/08 04:38:32;;;;;;;;;8.00;8.00;;;;;-149.00;100.00;66333.84;5101513;27;45324;-78
2021/07/08 04:40:57;;;;;;;;;8.67;8.67;;;;;-149.00;100.00;66333.84;5100240;27;45393;-77
2021/07/08 04:43:23;;;;;;;;;8.33;8.00;;;;;-149.00;100.00;66333.84;5101890;27;45294;-77
2021/07/08 04:45:50;;;;;;;;;7.67;7.67;;;;;-149.00;100.00;66333.84;5101817;27;45598;-77
2021/07/08 04:48:16;;;;;;;;;9.00;8.00;;;;;-149.00;100.00;66333.84;5102177;27;45238;-76
2021/07/08 04:50:41;;;;;;;;;6.67;6.67;;;;;-149.00;100.00;66333.84;5084349;27;45379;-76
2021/07/08 04:53:07;;;;;;;;;8.67;8.00;;;;;-149.00;100.00;66333.84;5102663;27;45510;-77
2021/07/08 04:55:32;;;;;;;;;8.00;8.00;;;;;-149.00;100.00;66333.84;5103002;27;46001;-76
2021/07/08 04:57:58;;;;;;;;;10.00;9.33;;;;;-149.00;100.00;66333.84;5102099;27;45170;-76
2021/07/08 05:00:23;;;;;;;;;7.33;7.00;;;;;-149.00;100.00;66333.84;5101964;27;45303;-77
2021/07/08 05:02:51;;;;;;;;;7.00;7.00;;;;;-149.00;100.00;66333.84;5102076;27;45501;-77
2021/07/08 05:05:17;;;;;;;;;11.33;10.00;;;;;-149.00;100.00;66333.84;5082698;27;48639;-77
2021/07/08 05:07:43;;;;;;;;;7.00;7.00;;;;;-149.00;100.00;66333.84;5102138;27;45300;-77
2021/07/08 05:10:14;;;;;;;;;8.67;8.33;;;;;-149.00;100.00;66333.84;5101290;27;45310;-77
2021/07/08 05:12:40;;;;;;;;;7.67;7.67;;;;;-149.00;100.00;66333.84;5102382;27;45411;-77
2021/07/08 05:15:07;;;;;;;;;8.33;7.67;;;;;-149.00;100.00;66333.84;5101530;27;46493;-77
2021/07/08 05:17:32;;;;;;;;;8.00;8.00;;;;;-149.00;100.00;66333.84;5100965;27;45360;-77
2021/07/08 05:19:58;;;;;;;;;10.33;9.33;;;;;-149.00;100.00;66333.84;5101412;27;45349;-77
2021/07/08 05:22:23;;;;;;;;;7.67;7.67;;;;;-149.00;100.00;66333.84;5101327;27;45470;-77
2021/07/08 05:24:49;;;;;;;;;11.33;9.33;;;;;-149.00;100.00;66333.84;5082609;27;46284;-78
2021/07/08 05:27:18;;;;;;;;;11.00;11.00;;;;;-149.00;100.00;66333.84;5083139;27;45631;-78
2021/07/08 05:29:45;;;;;;;;;10.33;10.00;;;;;-149.00;100.00;66333.84;5102416;27;45504;-77
2021/07/08 05:32:12;;;;;;;;;11.67;10.33;;;;;-149.00;100.00;66333.84;5102431;27;45422;-77
2021/07/08 05:34:38;;;;;;;;;7.67;7.00;;;;;-149.00;100.00;66333.84;5086375;27;47453;-76
2021/07/08 05:37:03;;;;;;;;;8.33;8.33;;;;;-149.00;100.00;66333.84;5102488;27;45294;-76
2021/07/08 05:39:29;;;;;;;;;10.67;9.00;;;;;-149.00;100.00;66333.84;5100793;27;45456;-76
2021/07/08 05:41:54;;;;;;;;;11.67;9.33;;;;;-149.00;100.00;66333.84;5100914;27;45517;-76
2021/07/08 05:44:19;;;;;;;;;10.00;9.33;;;;;-149.00;100.00;66333.84;5082434;27;45497;-77
2021/07/08 05:46:45;;;;;;;;;10.00;9.33;;;;;-149.00;100.00;66333.84;5100484;27;45215;-77
2021/07/08 05:49:10;;;;;;;;;9.67;9.67;;;;;-149.00;100.00;66333.84;5101152;27;45453;-77
2021/07/08 05:51:35;;;;;;;;;11.00;10.33;;;;;-149.00;100.00;66333.84;5100707;27;45788;-77
2021/07/08 05:54:01;;;;;;;;;9.00;9.00;;;;;-149.00;100.00;66333.84;5101138;27;45372;-77
2021/07/08 05:56:27;;;;;;;;;9.67;9.67;;;;;-149.00;100.00;66333.84;5100912;27;45520;-76
2021/07/08 05:58:53;;;;;;;;;9.00;9.00;;;;;-149.00;100.00;66333.84;5101398;27;45289;-75
2021/07/08 06:01:20;;;;;;;;;18.67;16.00;;;;;-149.00;100.00;66333.84;5100786;27;45488;-76
2021/07/08 06:03:45;;;;;;;;;24.00;22.00;;;;;-149.00;100.00;66333.84;5100826;27;47083;-76
2021/07/08 06:06:11;;;;;;;;;21.67;21.33;;;;;-149.00;100.00;66333.84;5100547;27;45314;-76
2021/07/08 06:08:36;;;;;;;;;13.33;13.00;;;;;-149.00;100.00;66333.84;5100824;27;45328;-76
2021/07/08 06:11:01;;;;;;;;;17.33;15.67;;;;;-149.00;100.00;66333.84;5100437;27;45294;-76
2021/07/08 06:13:27;;;;;;;;;22.00;20.67;;;;;-149.00;100.00;66333.84;5100429;27;46035;-76
2021/07/08 06:15:52;;;;;;;;;23.33;18.00;;;;;-149.00;100.00;66333.84;5100133;27;45322;-78
2021/07/08 06:18:17;;;;;;;;;20.00;18.67;;;;;-149.00;100.00;66333.84;5100150;27;45479;-77
2021/07/08 06:20:43;;;;;;;;;22.33;16.00;;;;;-149.00;100.00;66333.84;5100342;27;45451;-78
2021/07/08 06:23:08;;;;;;;;;15.67;15.33;;;;;-149.00;100.00;66333.84;5081942;27;47436;-77
2021/07/08 06:25:33;;;;;;;;;10.00;10.00;;;;;-149.00;100.00;66333.84;5100237;27;45414;-75
2021/07/08 06:27:59;;;;;;;;;14.33;14.00;;;;;-149.00;100.00;66333.84;5100531;27;45260;-76
2021/07/08 06:30:24;;;;;;;;;13.33;12.67;;;;;-149.00;100.00;66333.84;5100092;27;45534;-75
2021/07/08 06:32:50;;;;;;;;;14.33;12.33;;;;;-149.00;100.00;66333.84;5100890;27;45363;-75
2021/07/08 06:35:18;;;;;;;;;11.00;10.33;;;;;-149.00;100.00;66333.84;5102656;27;45200;-75
2021/07/08 06:37:47;;;;;;;;;11.00;11.00;;;;;-149.00;100.00;66333.84;5103965;27;45332;-75
2021/07/08 06:40:16;;;;;;;;;11.00;11.00;;;;;-149.00;100.00;66333.84;5102306;27;45304;-75
2021/07/08 06:42:42;;;;;;;;;16.00;13.67;;;;;-149.00;100.00;66333.84;5084029;27;47384;-75
2021/07/08 06:45:11;;;;;;;;;16.33;15.00;;;;;-149.00;100.00;66333.84;5082587;27;45323;-74
2021/07/08 06:47:39;;;;;;;;;12.67;12.00;;;;;-149.00;100.00;66333.84;5082955;27;45313;-77
2021/07/08 06:50:06;;;;;;;;;16.33;14.00;;;;;-149.00;100.00;66333.84;5100175;27;45332;-78
2021/07/08 06:52:32;;;;;;;;;12.67;11.33;;;;;-149.00;100.00;66333.84;5099499;27;47692;-80
2021/07/08 06:54:57;;;;;;;;;16.00;14.00;;;;;-149.00;100.00;66333.84;5098810;27;45294;-80
2021/07/08 06:57:23;;;;;;;;;11.33;11.33;;;;;-149.00;100.00;66333.84;5096777;27;45441;-78
2021/07/08 06:59:48;;;;;;;;;12.33;11.00;;;;;-149.00;100.00;66333.84;5099993;27;45530;-78
2021/07/08 07:02:13;;;;;;;;;15.00;12.00;;;;;-149.00;100.00;66333.84;5100634;27;46143;-78
2021/07/08 07:04:39;;;;;;;;;12.00;11.33;;;;;-149.00;100.00;66333.84;5099846;27;45270;-78
2021/07/08 07:07:05;;;;;;;;;10.00;10.00;;;;;-149.00;100.00;66333.84;5101306;27;45405;-77
2021/07/08 07:09:31;;;;;;;;;10.33;10.33;;;;;-149.00;100.00;66333.84;5101993;27;45295;-77
2021/07/08 07:11:56;;;;;;;;;12.33;10.00;;;;;-149.00;100.00;66333.84;5097546;27;46576;-78
2021/07/08 07:14:21;;;;;;;;;9.67;8.67;;;;;-149.00;100.00;66333.84;5080674;27;45299;-78
2021/07/08 07:16:47;;;;;;;;;10.00;9.00;;;;;-149.00;100.00;66333.84;5081756;27;45394;-77
2021/07/08 07:19:12;;;;;;;;;11.33;10.67;;;;;-149.00;100.00;66333.84;5099718;27;45433;-79
2021/07/08 07:21:37;;;;;;;;;9.67;9.00;;;;;-149.00;100.00;66333.84;5099159;27;45279;-79
2021/07/08 07:24:03;;;;;;;;;6.00;6.00;;;;;-149.00;100.00;66333.84;5098925;27;45335;-80
2021/07/08 07:26:29;;;;;;;;;7.33;7.33;;;;;-149.00;100.00;66333.84;5099130;27;45268;-79
2021/07/08 07:28:54;;;;;;;;;9.33;9.33;;;;;-149.00;100.00;66333.84;5102390;27;45252;-85
2021/07/08 07:31:19;;;;;;;;;11.00;10.67;;;;;-149.00;100.00;66333.84;5098100;27;48006;-83
2021/07/08 07:33:46;;;;;;;;;10.00;8.67;;;;;-149.00;100.00;66333.84;5103022;27;45189;-83
2021/07/08 07:36:11;;;;;;;;;7.67;7.33;;;;;-149.00;100.00;66333.84;5103190;27;45286;-85
2021/07/08 07:38:41;;;;;;;;;9.00;9.00;;;;;-149.00;100.00;66333.84;5102749;27;45445;-82
2021/07/08 07:41:07;;;;;;;;;8.33;8.33;;;;;-149.00;100.00;66333.84;5100682;27;46450;-82
2021/07/08 07:43:33;;;;;;;;;8.33;7.67;;;;;-149.00;100.00;66333.84;5092388;27;45357;-83
2021/07/08 07:45:59;;;;;;;;;7.00;6.67;;;;;-149.00;100.00;66333.84;5095290;27;45494;-83
2021/07/08 07:48:25;;;;;;;;;8.00;8.00;;;;;-149.00;100.00;66333.84;5082356;27;45909;-82
2021/07/08 07:50:50;;;;;;;;;9.67;8.00;;;;;-149.00;100.00;66333.84;5082278;27;47311;-83
2021/07/08 07:53:16;;;;;;;;;8.00;8.00;;;;;-149.00;100.00;66333.84;5092698;27;45391;-81
2021/07/08 07:55:41;;;;;;;;;6.67;6.67;;;;;-149.00;100.00;66333.84;5090494;27;45540;-82
2021/07/08 07:58:07;;;;;;;;;7.00;6.00;;;;;-149.00;100.00;66333.84;5095068;27;45454;-81
2021/07/08 08:00:33;;;;;;;;;7.00;7.00;;;;;-149.00;100.00;66333.84;5095041;27;45329;-79
2021/07/08 08:02:58;;;;;;;;;5.67;5.67;;;;;-149.00;100.00;66333.84;5098464;27;45302;-79
2021/07/08 08:10:42;;;;;;;;;10.00;7.67;;;;;-149.00;100.00;66333.84;5104582;27;45338;-81
2021/07/08 08:13:09;;;;;;;;;9.00;7.33;;;;;-149.00;100.00;66333.84;5106030;27;45256;-82
2021/07/08 08:15:35;;;;;;;;;8.00;8.00;;;;;-149.00;100.00;66333.84;5105201;27;45591;-84
2021/07/08 08:18:01;;;;;;;;;8.00;8.00;;;;;-149.00;100.00;66333.84;5110958;27;45457;-77
2021/07/08 08:20:27;;;;;;;;;7.00;7.00;;;;;-149.00;100.00;66333.84;5082739;28;48407;-78
2021/07/08 08:22:53;;;;;;;;;6.67;6.00;;;;;-149.00;100.00;66333.84;5091793;28;45244;-78
2021/07/08 08:25:18;;;;;;;;;6.67;6.33;;;;;-149.00;100.00;66333.84;5081798;28;45485;-78
2021/07/08 08:27:44;;;;;;;;;7.00;7.00;;;;;-149.00;100.00;66333.84;5090949;28;45331;-79
2021/07/08 08:30:12;;;;;;;;;5.67;5.67;;;;;-149.00;100.00;66333.84;5087902;28;45441;-80
2021/07/08 08:32:38;;;;;;;;;6.33;5.33;;;;;-149.00;100.00;66333.84;5070101;28;45478;-80
2021/07/08 08:35:04;;;;;;;;;5.00;5.00;;;;;-149.00;100.00;66333.84;5088905;28;44899;-79
2021/07/08 08:37:30;;;;;;;;;6.00;6.00;;;;;-149.00;100.00;66333.84;5066197;28;46697;-78
2021/07/08 08:39:55;;;;;;;;;5.67;5.67;;;;;-149.00;100.00;66333.84;5084035;28;45652;-78
2021/07/08 08:42:20;;;;;;;;;5.00;5.00;;;;;-149.00;100.00;66333.84;5084142;28;45266;-79
2021/07/08 08:44:46;;;;;;;;;9.00;8.67;;;;;-149.00;100.00;66333.84;5064656;28;45404;-79
2021/07/08 08:47:12;;;;;;;;;6.00;6.00;;;;;-149.00;100.00;66333.84;5066280;28;45836;-79
2021/07/08 08:49:41;;;;;;;;;7.00;7.00;;;;;-149.00;100.00;66333.84;5084944;28;45354;-81
2021/07/08 08:52:09;;;;;;;;;5.00;5.00;;;;;-149.00;100.00;66333.84;5084921;28;44760;-81
2021/07/08 08:54:35;;;;;;;;;5.00;4.33;;;;;-149.00;100.00;66333.84;5067559;28;45373;-83
2021/07/08 08:57:02;;;;;;;;;7.00;7.00;;;;;-149.00;100.00;66333.84;5071541;28;45634;-83
2021/07/08 08:59:27;;;;;;;;;9.33;5.67;;;;;-149.00;100.00;66333.84;5080452;28;45635;-81
2021/07/08 09:02:09;;;;;;;;;5.33;5.33;;;;;-149.00;100.00;66333.84;5081895;28;45343;-79
2021/07/08 09:04:35;;;;;;;;;5.67;4.33;;;;;-149.00;100.00;66333.84;5084276;28;45341;-78
2021/07/08 09:07:22;;;;;;;;;6.00;6.00;;;;;-149.00;100.00;66333.84;5084526;28;45438;-79
2021/07/08 09:09:49;;;;;;;;;6.33;5.33;;;;;-149.00;100.00;66333.84;5085975;28;45556;-79
2021/07/08 09:12:19;;;;;;;;;5.67;5.67;;;;;-149.00;100.00;66333.84;5086008;28;45309;-80
2021/07/08 09:14:45;;;;;;;;;6.00;6.00;;;;;-149.00;100.00;66333.84;5082871;28;45298;-79
2021/07/08 09:17:22;;;;;;;;;6.33;4.67;;;;;-149.00;100.00;66333.84;5083462;28;45314;-80
2021/07/08 09:20:06;;;;;;;;;5.67;5.00;;;;;-149.00;100.00;66333.84;5087023;27;46903;-79
2021/07/08 09:22:31;;;;;;;;;6.33;5.00;;;;;-149.00;100.00;66333.84;5084250;27;45341;-80
2021/07/08 09:24:57;;;;;;;;;6.00;4.67;;;;;-149.00;100.00;66333.84;5102100;27;45300;-79
2021/07/08 09:27:27;;;;;;;;;4.67;4.67;;;;;-149.00;100.00;66333.84;5102182;27;45455;-78
2021/07/08 09:29:54;;;;;;;;;4.33;3.67;;;;;-149.00;100.00;66333.84;5102631;27;45292;-79
2021/07/08 09:32:24;;;;;;;;;4.00;4.00;;;;;-149.00;100.00;66333.84;5065716;27;46228;-83
2021/07/08 09:34:52;;;;;;;;;4.33;4.33;;;;;-149.00;100.00;66333.84;5101520;27;45257;-82
2021/07/08 09:37:25;;;;;;;;;3.67;3.67;;;;;-149.00;100.00;66333.84;5082604;27;47343;-83
2021/07/08 09:39:54;;;;;;;;;4.00;4.00;;;;;-149.00;100.00;66333.84;5082557;27;47073;-83
2021/07/08 09:42:43;;;;;;;;;3.33;3.33;;;;;-149.00;100.00;66333.84;5101207;27;45391;-83
2021/07/08 09:45:16;;;;;;;;;4.00;4.00;;;;;-149.00;100.00;66333.84;5082792;27;45257;-81
2021/07/08 09:47:45;;;;;;;;;5.33;5.33;;;;;-149.00;100.00;66333.84;5101212;27;45359;-82
2021/07/08 09:50:35;;;;;;;;;3.67;3.67;;;;;-149.00;100.00;66333.84;5101112;27;45215;-82
2021/07/08 09:53:06;;;;;;;;;5.00;5.00;;;;;-149.00;100.00;66333.84;5082374;27;46062;-80
2021/07/08 09:56:00;;;;;;;;;4.33;4.33;;;;;-149.00;100.00;66333.84;5100495;27;45320;-84
2021/07/08 09:58:27;;;;;;;;;2.33;2.33;;;;;-149.00;100.00;66333.84;5100941;27;45211;-82
2021/07/08 10:00:53;;;;;;;;;3.00;3.00;;;;;-149.00;100.00;66333.84;5101199;27;45270;-82
2021/07/08 10:03:19;;;;;;;;;4.00;3.00;;;;;-149.00;100.00;66333.84;5100244;27;45190;-84
2021/07/08 10:05:45;;;;;;;;;3.67;3.67;;;;;-149.00;100.00;66333.84;5082631;27;45432;-83
2021/07/08 10:08:10;;;;;;;;;3.00;3.00;;;;;-149.00;100.00;66333.84;5082261;27;45533;-83
2021/07/08 10:10:37;;;;;;;;;3.00;3.00;;;;;-149.00;100.00;66333.84;5100254;27;45347;-81
2021/07/08 10:13:04;;;;;;;;;4.00;4.00;;;;;-149.00;100.00;66333.84;5101260;27;45309;-82
2021/07/08 10:15:34;;;;;;;;;3.00;3.00;;;;;-149.00;100.00;66333.84;5101473;27;45310;-83
2021/07/08 10:18:02;;;;;;;;;4.00;4.00;;;;;-149.00;100.00;66333.84;5101583;27;45231;-80
2021/07/08 10:20:29;;;;;;;;;7.00;5.67;;;;;-149.00;100.00;66333.84;5100286;27;47142;-82
2021/07/08 10:22:55;;;;;;;;;3.67;3.67;;;;;-149.00;100.00;66333.84;5100919;27;45306;-83
2021/07/08 10:25:20;;;;;;;;;4.67;4.00;;;;;-149.00;100.00;66333.84;5100438;27;45231;-85
2021/07/08 10:27:46;;;;;;;;;5.67;5.67;;;;;-149.00;100.00;66333.84;5100226;27;45231;-84
2021/07/08 10:30:13;;;;;;;;;4.00;4.00;;;;;-149.00;100.00;66333.84;5100545;27;47220;-85
2021/07/08 10:32:39;;;;;;;;;5.00;4.67;;;;;-149.00;100.00;66333.84;5100398;27;45243;-81
2021/07/08 10:35:06;;;;;;;;;5.00;5.00;;;;;-149.00;100.00;66333.84;5084195;27;45278;-81
2021/07/08 10:37:35;;;;;;;;;7.00;7.00;;;;;-149.00;100.00;66333.84;5097612;27;45414;-80
2021/07/08 10:40:01;;;;;;;;;6.67;5.00;;;;;-149.00;100.00;66333.84;5083524;27;46297;-83
2021/07/08 10:42:44;;;;;;;;;7.33;4.67;;;;;-149.00;100.00;66333.84;5103743;27;45212;-84
2021/07/08 10:45:21;;;;;;;;;7.00;7.00;;;;;-149.00;100.00;66333.84;5082622;27;45523;-83
2021/07/08 10:47:47;;;;;;;;;7.00;7.00;;;;;-149.00;100.00;66333.84;5103291;27;45381;-86
2021/07/08 10:50:34;;;;;;;;;6.33;6.33;;;;;-149.00;100.00;66333.84;5104785;27;45244;-84
2021/07/08 10:53:25;;;;;;;;;6.00;6.00;;;;;-149.00;100.00;66333.84;5103244;27;45268;-84
2021/07/08 10:56:01;;;;;;;;;5.00;5.00;;;;;-149.00;100.00;66333.84;5080971;28;45301;-87
2021/07/08 10:58:41;;;;;;;;;7.33;5.33;;;;;-149.00;100.00;66333.84;5061411;28;46156;-82
2021/07/08 11:01:27;;;;;;;;;5.00;5.00;;;;;-149.00;100.00;66333.84;5079803;27;46046;-83
2021/07/08 11:03:54;;;;;;;;;5.00;5.00;;;;;-149.00;100.00;66333.84;5081496;27;45294;-82
2021/07/08 11:06:25;;;;;;;;;5.00;5.00;;;;;-149.00;100.00;66333.84;5099554;27;45428;-81
2021/07/08 11:08:59;;;;;;;;;6.33;6.33;;;;;-149.00;100.00;66333.84;5101879;27;45314;-82
2021/07/08 11:11:24;;;;;;;;;5.00;5.00;;;;;-149.00;100.00;66333.84;5093715;27;45433;-81